Time;durP1;ratioP1;P1;durP2;ratioP2;P2;SDS_P1;SDS_P2;PMS_P1;PMS_P2;Temp;Humidity;BMP_temperature;BMP_pressure;BME280_temperature;BME280_humidity;BME280_pressure;Samples;Min_cycle;Max_cycle;Signal;HPM_P1;HPM_P2
2022/08/09 00:00:03;;;;;;;4.20;2.20;;;21.30;81.10;;;;;;5031389;28;20049;-93
2022/08/09 00:02:28;;;;;;;3.50;1.98;;;21.30;81.10;;;;;;5031843;28;20022;-93
2022/08/09 00:04:54;;;;;;;4.32;2.15;;;21.20;81.20;;;;;;5032217;28;20018;-94
2022/08/09 00:07:19;;;;;;;2.13;1.60;;;21.20;81.20;;;;;;5033185;28;20071;-93
2022/08/09 00:09:45;;;;;;;3.55;1.80;;;21.30;81.30;;;;;;5031891;28;20526;-92
2022/08/09 00:12:10;;;;;;;4.25;2.08;;;21.30;81.30;;;;;;5031355;28;20038;-92
2022/08/09 00:14:36;;;;;;;2.50;1.70;;;21.30;81.20;;;;;;5031614;28;20494;-93
2022/08/09 00:17:02;;;;;;;3.53;1.80;;;21.20;81.10;;;;;;5030683;28;20459;-93
2022/08/09 00:19:28;;;;;;;3.45;1.80;;;21.40;81.20;;;;;;5030363;28;20024;-93
2022/08/09 00:21:53;;;;;;;3.72;2.00;;;21.40;81.10;;;;;;5030431;28;20026;-94
2022/08/09 00:24:19;;;;;;;2.95;1.70;;;21.30;81.00;;;;;;5030841;28;20109;-94
2022/08/09 00:26:45;;;;;;;2.70;1.80;;;21.30;81.00;;;;;;5030350;28;20021;-92
2022/08/09 00:29:10;;;;;;;2.53;1.70;;;21.70;81.30;;;;;;5030283;28;20030;-92
2022/08/09 00:31:36;;;;;;;3.05;1.80;;;21.20;81.10;;;;;;5030377;28;20048;-94
2022/08/09 00:34:02;;;;;;;4.10;2.10;;;21.30;81.30;;;;;;5030529;28;20114;-93
2022/08/09 00:36:27;;;;;;;4.22;2.20;;;21.20;81.40;;;;;;5030729;28;20155;-93
2022/08/09 00:38:53;;;;;;;3.60;2.08;;;21.20;82.00;;;;;;5030325;28;20022;-93
2022/08/09 00:41:21;;;;;;;4.18;2.28;;;21.30;81.60;;;;;;5030379;28;20022;-92
2022/08/09 00:43:49;;;;;;;3.92;2.17;;;21.30;81.70;;;;;;5030473;28;20026;-93
2022/08/09 00:46:15;;;;;;;3.38;2.00;;;21.20;81.70;;;;;;5031746;28;20026;-92
2022/08/09 00:48:41;;;;;;;3.60;2.03;;;21.10;81.70;;;;;;5030561;28;20029;-94
2022/08/09 00:51:07;;;;;;;4.40;1.88;;;21.10;81.70;;;;;;5029947;28;20037;-93
2022/08/09 00:53:34;;;;;;;3.00;1.80;;;21.20;81.80;;;;;;5033975;28;20053;-93
2022/08/09 00:56:01;;;;;;;3.38;1.80;;;21.20;81.80;;;;;;5017466;28;20025;-93
2022/08/09 00:58:26;;;;;;;3.05;1.90;;;21.30;81.80;;;;;;5034310;28;20367;-93
2022/08/09 01:00:54;;;;;;;2.97;1.70;;;21.20;81.70;;;;;;5033361;28;20095;-92
2022/08/09 01:03:35;;;;;;;3.03;1.60;;;21.20;81.60;;;;;;5034013;28;20023;-93
2022/08/09 01:06:10;;;;;;;2.30;1.60;;;21.30;82.10;;;;;;5033887;28;20032;-93
2022/08/09 01:08:47;;;;;;;3.38;2.03;;;21.30;81.50;;;;;;5034473;28;20026;-93
2022/08/09 01:11:37;;;;;;;3.10;1.60;;;21.30;81.50;;;;;;5033581;28;20033;-94
2022/08/09 01:14:08;;;;;;;2.53;1.60;;;21.30;81.40;;;;;;5036785;28;20095;-93
2022/08/09 01:16:43;;;;;;;3.92;1.90;;;21.40;81.60;;;;;;5035205;28;20030;-94
2022/08/09 01:19:36;;;;;;;3.83;1.85;;;21.20;81.50;;;;;;5035833;28;20032;-94
2022/08/09 01:22:26;;;;;;;3.53;2.00;;;21.20;81.80;;;;;;5036401;28;20014;-92
2022/08/09 01:25:10;;;;;;;3.67;2.28;;;21.20;81.90;;;;;;5034940;28;20638;-92
2022/08/09 01:27:38;;;;;;;2.85;1.73;;;21.20;82.00;;;;;;5035973;28;20026;-91
2022/08/09 01:30:06;;;;;;;3.85;2.15;;;21.20;82.10;;;;;;5033174;28;20021;-92
2022/08/09 01:32:38;;;;;;;3.40;2.10;;;21.20;82.10;;;;;;5037894;28;20080;-93
2022/08/09 01:35:10;;;;;;;3.22;2.00;;;21.10;82.10;;;;;;5029387;28;20095;-94
2022/08/09 01:37:37;;;;;;;3.42;1.80;;;21.20;82.20;;;;;;5030529;28;20021;-94
2022/08/09 01:40:05;;;;;;;2.67;1.67;;;21.20;82.20;;;;;;5022910;28;20042;-94
2022/08/09 01:42:33;;;;;;;2.78;1.70;;;21.20;82.20;;;;;;5032847;28;20036;-95
2022/08/09 01:44:59;;;;;;;3.00;1.80;;;21.20;82.20;;;;;;5030299;28;20129;-93
2022/08/09 01:47:26;;;;;;;2.65;1.80;;;21.30;82.20;;;;;;5032004;28;20788;-94
2022/08/09 01:49:54;;;;;;;3.15;1.70;;;21.20;82.10;;;;;;5028693;28;20514;-93
2022/08/09 01:52:21;;;;;;;3.10;1.90;;;21.30;82.00;;;;;;5030690;28;20541;-94
2022/08/09 01:54:52;;;;;;;3.10;1.88;;;21.30;81.90;;;;;;5032918;28;20083;-94
2022/08/09 01:57:19;;;;;;;;;;;21.30;81.80;;;;;;5032736;28;20022;-95
2022/08/09 01:59:48;;;;;;;3.42;1.90;;;21.40;81.90;;;;;;5028601;28;20433;-94
2022/08/09 02:02:15;;;;;;;2.67;1.58;;;21.20;81.80;;;;;;5033072;28;20074;-95
2022/08/09 02:04:41;;;;;;;3.33;1.70;;;21.30;81.90;;;;;;5031646;28;20441;-94
2022/08/09 02:07:14;;;;;;;3.22;1.63;;;21.20;82.00;;;;;;5032373;28;20523;-94
2022/08/09 02:09:49;;;;;;;3.80;2.00;;;21.20;82.20;;;;;;5047664;28;20061;-94
2022/08/09 02:12:17;;;;;;;3.65;1.88;;;21.30;82.30;;;;;;5032498;28;20029;-95
2022/08/09 02:14:45;;;;;;;2.97;1.85;;;21.20;82.40;;;;;;5032664;28;20036;-94
2022/08/09 02:17:12;;;;;;;3.70;1.80;;;21.30;82.50;;;;;;5032722;28;20030;-94
2022/08/09 02:19:38;;;;;;;3.10;2.03;;;21.10;82.40;;;;;;5032658;28;20018;-95
2022/08/09 02:22:12;;;;;;;2.95;1.80;;;21.10;82.50;;;;;;5033462;28;20029;-94
2022/08/09 02:24:44;;;;;;;3.45;2.10;;;21.20;82.50;;;;;;5037941;28;20024;-94
2022/08/09 02:27:13;;;;;;;3.28;2.00;;;21.20;82.60;;;;;;5039437;28;20577;-94
2022/08/09 02:29:44;;;;;;;2.53;1.58;;;21.00;82.50;;;;;;5035246;28;20029;-95
2022/08/09 02:32:11;;;;;;;2.90;1.70;;;21.10;82.50;;;;;;5016018;28;20368;-94
2022/08/09 02:34:38;;;;;;;2.53;1.65;;;21.70;82.80;;;;;;5023103;28;20049;-94
2022/08/09 02:37:09;;;;;;;2.42;1.60;;;21.20;82.50;;;;;;5023128;28;20060;-92
2022/08/09 02:39:40;;;;;;;3.00;1.75;;;21.20;82.40;;;;;;5023985;28;20014;-95
2022/08/09 02:42:15;;;;;;;3.07;1.43;;;21.20;82.30;;;;;;5031394;28;20025;-93
2022/08/09 02:44:46;;;;;;;3.45;1.90;;;21.20;82.20;;;;;;5031394;28;20280;-94
2022/08/09 02:47:13;;;;;;;2.53;1.67;;;21.30;82.20;;;;;;5031646;28;20072;-95
2022/08/09 02:49:49;;;;;;;2.53;1.70;;;21.30;82.10;;;;;;5025178;28;20026;-93
2022/08/09 02:52:17;;;;;;;2.00;1.40;;;21.10;82.10;;;;;;5031243;28;20033;-95
2022/08/09 02:54:44;;;;;;;2.92;1.67;;;21.30;82.30;;;;;;5031410;28;20029;-94
2022/08/09 02:57:10;;;;;;;3.63;1.98;;;21.10;82.40;;;;;;5031740;28;20021;-95
2022/08/09 02:59:38;;;;;;;2.83;1.52;;;21.20;82.50;;;;;;5031098;28;20075;-95
2022/08/09 03:02:06;;;;;;;2.15;1.60;;;21.20;82.60;;;;;;5031042;28;20486;-94
2022/08/09 03:04:33;;;;;;;2.45;1.65;;;21.30;82.80;;;;;;5031387;28;20025;-94
2022/08/09 03:07:01;;;;;;;3.97;2.03;;;21.10;82.70;;;;;;5037621;28;20028;-95
2022/08/09 03:09:27;;;;;;;3.42;1.95;;;21.20;82.90;;;;;;5035911;28;20076;-95
2022/08/09 03:11:53;;;;;;;4.35;1.90;;;21.00;82.80;;;;;;5036185;28;20037;-94
2022/08/09 03:14:20;;;;;;;3.22;1.70;;;21.10;82.90;;;;;;5035851;28;20025;-96
2022/08/09 03:16:46;;;;;;;2.80;1.80;;;21.00;82.90;;;;;;5035794;28;20120;-95
2022/08/09 03:19:13;;;;;;;2.30;1.55;;;21.10;82.90;;;;;;5032136;28;20032;-94
2022/08/09 03:21:40;;;;;;;2.70;1.50;;;21.00;82.80;;;;;;5034515;28;20025;-96
2022/08/09 03:24:06;;;;;;;2.67;1.67;;;21.20;82.90;;;;;;5036092;28;20092;-94
2022/08/09 03:26:33;;;;;;;1.95;1.50;;;21.10;82.70;;;;;;5031654;28;20167;-95
2022/08/09 03:28:59;;;;;;;3.28;1.60;;;21.20;82.70;;;;;;5035919;28;20037;-94
2022/08/09 03:31:26;;;;;;;2.72;1.80;;;21.20;82.50;;;;;;5031361;28;20494;-94
2022/08/09 03:33:53;;;;;;;3.10;1.55;;;22.20;83.00;;;;;;5030254;28;20548;-94
2022/08/09 03:36:19;;;;;;;1.90;1.42;;;21.20;82.40;;;;;;5035525;28;20475;-96
2022/08/09 03:38:44;;;;;;;2.45;1.50;;;21.20;82.40;;;;;;5030618;28;20029;-94
2022/08/09 03:41:11;;;;;;;2.38;1.60;;;21.20;82.40;;;;;;5024539;28;20029;-93
2022/08/09 03:43:37;;;;;;;3.85;1.70;;;21.10;82.50;;;;;;5034616;28;20096;-94
2022/08/09 03:46:02;;;;;;;2.90;1.88;;;21.20;82.60;;;;;;5037580;28;20063;-94
2022/08/09 03:48:31;;;;;;;3.65;1.88;;;21.20;82.90;;;;;;5030805;28;20395;-95
2022/08/09 03:50:58;;;;;;;2.60;1.80;;;21.20;83.00;;;;;;5031458;28;20056;-94
2022/08/09 03:53:24;;;;;;;3.47;1.90;;;21.10;83.00;;;;;;5032217;28;20025;-94
2022/08/09 03:55:51;;;;;;;2.33;1.70;;;21.00;83.00;;;;;;5030690;28;20040;-94
2022/08/09 03:58:17;;;;;;;2.50;1.77;;;21.10;83.10;;;;;;5048489;28;20028;-94
2022/08/09 04:00:47;;;;;;;2.78;1.80;;;22.00;83.70;;;;;;5043287;28;20052;-92
2022/08/09 04:03:14;;;;;;;2.45;1.70;;;21.90;83.60;;;;;;5029050;28;20083;-95
2022/08/09 04:05:40;;;;;;;2.75;1.70;;;21.10;83.20;;;;;;5029463;28;20022;-93
2022/08/09 04:08:06;;;;;;;2.97;1.73;;;21.10;83.20;;;;;;5029233;28;20035;-95
2022/08/09 04:10:31;;;;;;;2.28;1.50;;;21.10;83.10;;;;;;5031288;28;20029;-95
2022/08/09 04:12:59;;;;;;;1.90;1.50;;;21.20;83.10;;;;;;5034919;28;20115;-93
2022/08/09 04:15:25;;;;;;;2.88;1.60;;;21.20;83.10;;;;;;5034207;28;20041;-93
2022/08/09 04:17:50;;;;;;;2.03;1.42;;;21.20;83.00;;;;;;5021548;28;20495;-94
2022/08/09 04:20:17;;;;;;;2.42;1.50;;;21.20;82.90;;;;;;5033113;28;20025;-94
2022/08/09 04:22:44;;;;;;;3.25;1.65;;;21.20;82.80;;;;;;5035038;28;20021;-93
2022/08/09 04:25:11;;;;;;;2.10;1.40;;;21.20;82.80;;;;;;5035028;28;20022;-93
2022/08/09 04:27:40;;;;;;;2.47;1.60;;;21.20;82.80;;;;;;5030241;28;20032;-93
2022/08/09 04:30:16;;;;;;;2.92;1.70;;;21.00;82.80;;;;;;5034846;28;20478;-94
2022/08/09 04:32:42;;;;;;;2.83;1.80;;;21.20;83.10;;;;;;5028923;28;20461;-93
2022/08/09 04:35:10;;;;;;;3.58;1.85;;;21.10;83.10;;;;;;5032701;28;20025;-92
2022/08/09 04:37:36;;;;;;;2.83;1.80;;;21.70;83.60;;;;;;5031302;28;20048;-93
2022/08/09 04:40:03;;;;;;;3.15;1.73;;;21.10;83.30;;;;;;5046534;28;20278;-95
2022/08/09 04:42:30;;;;;;;2.58;1.58;;;21.10;83.30;;;;;;5034827;28;20056;-93
2022/08/09 04:44:57;;;;;;;2.20;1.60;;;21.20;83.40;;;;;;5046618;28;20018;-92
2022/08/09 04:47:28;;;;;;;3.53;1.92;;;20.90;83.20;;;;;;5043647;28;20041;-94
2022/08/09 04:49:54;;;;;;;2.60;1.70;;;21.10;83.40;;;;;;5041861;28;20030;-95
2022/08/09 04:52:27;;;;;;;2.90;1.85;;;21.10;83.40;;;;;;5049925;28;20029;-96
2022/08/09 04:54:54;;;;;;;4.07;1.70;;;21.10;83.40;;;;;;5025739;28;20128;-95
2022/08/09 04:57:21;;;;;;;2.22;1.60;;;21.10;83.40;;;;;;5034764;28;20037;-94
2022/08/09 04:59:54;;;;;;;2.42;1.40;;;21.10;83.20;;;;;;5031493;28;20084;-96
2022/08/09 05:02:22;;;;;;;1.70;1.40;;;21.10;83.20;;;;;;5036807;28;20025;-95
2022/08/09 05:04:48;;;;;;;4.15;1.55;;;21.10;83.00;;;;;;5040201;28;20075;-95
2022/08/09 05:07:25;;;;;;;5.43;1.50;;;21.20;83.00;;;;;;5040008;28;20025;-94
2022/08/09 05:09:56;;;;;;;2.88;1.65;;;21.20;83.00;;;;;;5051210;28;20009;-95
2022/08/09 05:15:30;;;;;;;4.35;1.75;;;21.00;82.60;;;;;;5032175;28;20068;-76
2022/08/09 05:17:56;;;;;;;4.43;1.70;;;21.10;82.70;;;;;;5033760;28;20115;-75
2022/08/09 05:20:21;;;;;;;6.07;1.98;;;21.10;82.70;;;;;;5030462;28;20168;-72
2022/08/09 05:22:49;;;;;;;5.57;2.05;;;21.90;83.10;;;;;;5032675;28;20029;-74
2022/08/09 05:25:15;;;;;;;4.78;1.80;;;21.10;82.70;;;;;;5016409;28;20260;-75
2022/08/09 05:27:40;;;;;;;5.22;2.05;;;21.10;83.10;;;;;;5012835;28;20176;-72
2022/08/09 05:30:06;;;;;;;6.25;2.10;;;21.10;82.60;;;;;;5012809;28;20026;-75
2022/08/09 05:32:32;;;;;;;6.72;2.13;;;21.10;82.50;;;;;;5014284;28;20392;-76
2022/08/09 05:34:57;;;;;;;5.60;2.10;;;21.10;82.60;;;;;;5012886;28;20073;-76
2022/08/09 05:37:24;;;;;;;11.10;2.30;;;21.10;82.60;;;;;;5014373;28;20104;-76
2022/08/09 05:39:49;;;;;;;7.32;1.95;;;21.10;82.70;;;;;;5011407;28;20032;-73
2022/08/09 05:42:15;;;;;;;8.85;2.20;;;21.10;82.60;;;;;;5013447;28;20034;-75
2022/08/09 05:44:40;;;;;;;8.85;2.08;;;21.10;82.60;;;;;;5012367;28;20022;-76
2022/08/09 05:47:06;;;;;;;5.53;2.05;;;21.10;82.60;;;;;;5012733;28;20483;-75
2022/08/09 05:49:32;;;;;;;4.32;1.85;;;21.10;82.60;;;;;;5013472;28;20033;-73
2022/08/09 05:51:57;;;;;;;5.10;1.90;;;21.20;82.60;;;;;;5013484;28;20026;-76
2022/08/09 05:54:23;;;;;;;6.80;2.15;;;21.20;82.50;;;;;;5012683;28;20430;-76
2022/08/09 05:56:48;;;;;;;6.07;1.90;;;21.20;82.40;;;;;;5012575;28;20075;-76
2022/08/09 05:59:14;;;;;;;4.90;1.85;;;21.20;82.40;;;;;;5014143;28;20060;-76
2022/08/09 06:01:41;;;;;;;5.93;1.80;;;21.20;82.40;;;;;;5013373;28;20021;-76
2022/08/09 06:04:07;;;;;;;5.45;1.90;;;21.20;82.40;;;;;;5012641;28;20022;-75
2022/08/09 06:06:33;;;;;;;4.47;1.92;;;21.20;82.40;;;;;;5012686;28;20029;-76
2022/08/09 06:08:58;;;;;;;6.85;1.80;;;21.20;82.50;;;;;;5012634;28;20030;-75
2022/08/09 06:11:24;;;;;;;4.57;1.75;;;21.20;82.50;;;;;;5013445;28;20124;-76
2022/08/09 06:13:49;;;;;;;4.82;1.90;;;21.20;82.50;;;;;;5018246;28;20102;-75
2022/08/09 06:16:15;;;;;;;6.32;1.80;;;21.20;82.40;;;;;;5032132;28;20037;-75
2022/08/09 06:18:40;;;;;;;5.47;1.98;;;21.20;82.30;;;;;;5032081;28;20027;-74
2022/08/09 06:21:06;;;;;;;4.32;1.60;;;21.20;82.40;;;;;;5032973;28;20026;-75
2022/08/09 06:23:32;;;;;;;7.68;1.70;;;21.20;82.30;;;;;;5031879;28;20026;-76
2022/08/09 06:25:58;;;;;;;4.22;1.80;;;21.20;82.30;;;;;;5031920;28;20032;-76
2022/08/09 06:28:24;;;;;;;6.53;1.90;;;21.20;82.30;;;;;;5033342;28;20110;-75
2022/08/09 06:30:49;;;;;;;4.00;1.88;;;21.30;82.20;;;;;;5031462;28;20036;-76
2022/08/09 06:33:15;;;;;;;7.68;1.90;;;21.30;82.30;;;;;;5033107;28;20600;-77
2022/08/09 06:35:40;;;;;;;3.88;1.73;;;21.20;82.30;;;;;;5031835;28;20048;-76
2022/08/09 06:38:06;;;;;;;3.35;1.52;;;21.30;82.30;;;;;;5031717;28;20504;-75
2022/08/09 06:40:32;;;;;;;3.15;1.65;;;21.40;82.10;;;;;;5031269;28;20397;-76
2022/08/09 06:42:59;;;;;;;4.25;1.63;;;21.40;82.00;;;;;;5031758;28;20379;-75
2022/08/09 06:45:25;;;;;;;2.95;1.70;;;21.40;81.80;;;;;;5031639;28;20025;-76
2022/08/09 06:47:51;;;;;;;4.60;1.70;;;21.40;81.60;;;;;;5031448;28;20528;-75
2022/08/09 06:50:16;;;;;;;3.95;1.63;;;21.50;81.60;;;;;;5030841;28;20040;-75
2022/08/09 06:52:45;;;;;;;3.42;1.70;;;21.40;81.60;;;;;;5031480;28;20029;-76
2022/08/09 06:55:16;;;;;;;4.22;1.70;;;21.40;81.60;;;;;;5031510;28;20397;-76
2022/08/09 06:57:42;;;;;;;4.47;1.67;;;21.40;81.70;;;;;;5032481;28;20025;-76
2022/08/09 07:00:08;;;;;;;4.20;1.67;;;21.40;81.70;;;;;;5031056;28;20553;-75
2022/08/09 07:02:34;;;;;;;3.72;1.60;;;21.50;81.70;;;;;;5032554;28;20024;-76
2022/08/09 07:05:00;;;;;;;4.18;1.63;;;21.50;81.80;;;;;;5032251;28;20025;-75
2022/08/09 07:07:27;;;;;;;4.43;1.80;;;21.50;82.20;;;;;;5031067;28;20064;-76
2022/08/09 07:09:52;;;;;;;4.22;1.90;;;21.50;81.70;;;;;;5031830;28;20083;-75
2022/08/09 07:12:18;;;;;;;4.55;1.83;;;21.50;81.70;;;;;;5032363;28;20033;-76
2022/08/09 07:14:44;;;;;;;3.63;1.73;;;21.50;81.60;;;;;;5032227;28;20041;-76
2022/08/09 07:17:09;;;;;;;3.25;1.75;;;21.50;81.50;;;;;;5032245;28;20026;-77
2022/08/09 07:19:34;;;;;;;2.65;1.50;;;21.50;81.40;;;;;;5030806;28;20505;-75
2022/08/09 07:22:00;;;;;;;3.63;1.90;;;21.50;81.50;;;;;;5030557;28;20155;-76
2022/08/09 07:24:29;;;;;;;3.67;1.92;;;21.60;81.60;;;;;;5030860;28;20067;-76
2022/08/09 07:26:55;;;;;;;3.63;1.90;;;21.60;81.50;;;;;;5032057;28;20030;-75
2022/08/09 07:29:21;;;;;;;4.43;1.90;;;21.70;81.40;;;;;;5032171;28;20084;-75
2022/08/09 07:31:46;;;;;;;3.00;1.73;;;21.70;81.20;;;;;;5031704;28;20025;-76
2022/08/09 07:34:12;;;;;;;3.53;1.70;;;21.70;81.00;;;;;;5030604;28;20025;-75
2022/08/09 07:36:39;;;;;;;3.15;1.85;;;21.80;80.90;;;;;;5032166;28;20478;-75
2022/08/09 07:39:05;;;;;;;4.35;2.13;;;21.80;80.80;;;;;;5030664;28;20029;-76
2022/08/09 07:41:30;;;;;;;4.07;2.10;;;21.80;80.80;;;;;;5030252;28;20079;-76
2022/08/09 07:43:56;;;;;;;4.38;1.90;;;21.80;80.90;;;;;;5030587;28;20032;-75
2022/08/09 07:46:22;;;;;;;3.55;2.08;;;21.80;80.80;;;;;;5030473;28;20030;-76
2022/08/09 07:48:47;;;;;;;3.85;1.90;;;21.80;80.80;;;;;;5030536;28;20187;-76
2022/08/09 07:51:13;;;;;;;3.20;1.90;;;21.80;80.80;;;;;;5031427;28;20052;-75
2022/08/09 07:53:38;;;;;;;4.00;1.80;;;21.80;80.80;;;;;;5031699;28;20022;-76
2022/08/09 07:56:04;;;;;;;3.42;1.95;;;21.80;80.90;;;;;;5030357;28;20025;-76
2022/08/09 07:58:30;;;;;;;4.13;1.90;;;21.90;80.90;;;;;;5030357;28;20021;-76
2022/08/09 08:00:55;;;;;;;3.67;2.03;;;21.80;80.70;;;;;;5030713;28;20084;-75
2022/08/09 08:03:21;;;;;;;4.68;2.20;;;21.90;80.80;;;;;;5031443;28;20024;-75
2022/08/09 08:05:47;;;;;;;3.88;2.20;;;21.90;80.80;;;;;;5031601;28;20013;-76
2022/08/09 08:08:12;;;;;;;4.50;2.40;;;21.90;80.70;;;;;;5030352;28;20022;-76
2022/08/09 08:10:38;;;;;;;3.85;2.10;;;21.90;80.80;;;;;;5029920;28;20025;-75
2022/08/09 08:13:04;;;;;;;2.95;1.90;;;21.90;80.80;;;;;;5030431;28;20155;-75
2022/08/09 08:15:30;;;;;;;5.10;2.10;;;21.90;80.70;;;;;;5031519;28;20029;-75
2022/08/09 08:17:55;;;;;;;4.20;2.30;;;22.00;80.50;;;;;;5031228;28;20087;-76
2022/08/09 08:20:23;;;;;;;3.45;2.00;;;22.00;80.40;;;;;;5031186;28;20029;-76
2022/08/09 08:22:49;;;;;;;5.57;2.53;;;22.10;80.30;;;;;;5031818;28;20501;-77
2022/08/09 08:25:14;;;;;;;3.80;2.00;;;22.10;80.60;;;;;;5030428;28;20022;-76
2022/08/09 08:27:41;;;;;;;3.08;1.88;;;22.10;79.90;;;;;;5030250;28;20030;-76
2022/08/09 08:30:07;;;;;;;4.00;2.20;;;22.10;79.80;;;;;;5031040;28;20025;-76
2022/08/09 08:32:33;;;;;;;3.25;1.90;;;22.10;80.00;;;;;;5031389;28;20018;-76
2022/08/09 08:34:59;;;;;;;3.92;2.33;;;22.10;80.00;;;;;;5031311;28;20052;-76
2022/08/09 08:37:27;;;;;;;3.30;2.25;;;22.10;79.90;;;;;;5030052;28;20040;-76
2022/08/09 08:39:53;;;;;;;3.63;2.13;;;22.10;80.10;;;;;;5029792;28;20029;-75
2022/08/09 08:42:20;;;;;;;3.63;2.00;;;22.10;80.10;;;;;;5031465;28;20024;-76
2022/08/09 08:44:50;;;;;;;4.05;2.20;;;22.10;80.20;;;;;;5030098;28;20021;-76
2022/08/09 08:47:16;;;;;;;3.50;1.97;;;22.10;80.10;;;;;;5031418;28;20041;-76
2022/08/09 08:49:42;;;;;;;3.40;2.15;;;22.10;80.20;;;;;;5029668;28;20080;-76
2022/08/09 08:52:07;;;;;;;4.25;2.42;;;22.10;80.20;;;;;;5029728;28;20112;-76
2022/08/09 08:54:33;;;;;;;3.50;2.20;;;22.20;80.30;;;;;;5031349;28;20112;-76
2022/08/09 08:56:59;;;;;;;4.55;2.15;;;22.20;80.30;;;;;;5029760;28;20029;-75
2022/08/09 08:59:25;;;;;;;3.67;2.30;;;22.20;80.30;;;;;;5029749;28;20033;-75
2022/08/09 09:01:52;;;;;;;3.00;1.75;;;22.20;80.20;;;;;;5030740;28;20101;-75
2022/08/09 09:04:19;;;;;;;3.78;2.13;;;22.20;80.20;;;;;;5031155;28;20041;-76
2022/08/09 09:06:47;;;;;;;3.97;2.30;;;22.30;80.00;;;;;;5029997;28;20443;-75
2022/08/09 09:09:14;;;;;;;3.55;2.10;;;22.30;79.90;;;;;;5029696;28;20482;-75
2022/08/09 09:11:41;;;;;;;4.68;2.20;;;22.30;79.70;;;;;;5029556;28;20040;-75
2022/08/09 09:14:16;;;;;;;4.57;2.42;;;22.40;79.50;;;;;;5032775;28;20065;-76
2022/08/09 09:16:42;;;;;;;3.65;2.15;;;22.40;79.40;;;;;;5033156;28;20076;-75
2022/08/09 09:19:10;;;;;;;3.85;2.30;;;22.40;79.60;;;;;;5033170;28;20021;-75
2022/08/09 09:21:36;;;;;;;3.40;2.00;;;22.30;79.40;;;;;;5032884;28;20449;-76
2022/08/09 09:24:06;;;;;;;4.05;2.00;;;22.30;79.40;;;;;;5033042;28;20059;-76
2022/08/09 09:26:35;;;;;;;3.90;2.20;;;22.40;79.60;;;;;;5034358;28;20022;-76
2022/08/09 09:29:01;;;;;;;4.18;2.28;;;22.40;79.60;;;;;;5034358;28;20120;-75
2022/08/09 09:31:27;;;;;;;3.25;2.08;;;22.40;79.80;;;;;;5032669;28;20109;-75
2022/08/09 09:34:13;;;;;;;3.65;2.08;;;22.40;79.80;;;;;;5032903;28;20034;-75
2022/08/09 09:36:40;;;;;;;4.05;2.30;;;22.40;79.70;;;;;;5032742;28;20045;-76
2022/08/09 09:39:08;;;;;;;4.05;2.35;;;22.40;79.70;;;;;;5033309;28;20052;-76
2022/08/09 09:41:34;;;;;;;4.13;1.90;;;22.40;79.70;;;;;;5033669;28;20371;-76
2022/08/09 09:44:05;;;;;;;4.13;2.20;;;22.40;79.60;;;;;;5032695;28;20021;-76
2022/08/09 09:46:39;;;;;;;3.63;2.20;;;22.40;79.60;;;;;;5032779;28;20021;-75
2022/08/09 09:49:08;;;;;;;4.43;2.13;;;22.40;79.60;;;;;;5034050;28;20518;-76
2022/08/09 09:51:35;;;;;;;3.17;2.05;;;22.40;79.70;;;;;;5032065;28;20021;-77
2022/08/09 09:54:09;;;;;;;4.25;2.17;;;22.40;79.60;;;;;;5032474;28;20120;-76
2022/08/09 09:56:40;;;;;;;3.83;2.30;;;22.50;79.60;;;;;;5032610;28;20025;-75
2022/08/09 09:59:07;;;;;;;3.58;2.05;;;22.50;79.40;;;;;;5033881;28;20033;-76
2022/08/09 10:01:33;;;;;;;3.53;2.13;;;22.50;79.30;;;;;;5031958;28;20034;-77
2022/08/09 10:03:59;;;;;;;4.13;2.08;;;22.50;79.30;;;;;;5032541;28;20069;-75
2022/08/09 10:06:37;;;;;;;4.30;2.08;;;22.50;79.10;;;;;;5033823;28;20030;-75
2022/08/09 10:09:03;;;;;;;3.88;2.03;;;22.50;79.10;;;;;;5032517;28;20116;-75
2022/08/09 10:11:31;;;;;;;3.90;2.40;;;22.50;79.20;;;;;;5032144;28;20140;-76
2022/08/09 10:13:57;;;;;;;3.08;2.00;;;22.50;79.30;;;;;;5032048;28;20036;-76
2022/08/09 10:16:29;;;;;;;4.28;2.22;;;22.50;79.40;;;;;;5032115;28;20445;-76
2022/08/09 10:18:57;;;;;;;3.88;2.10;;;22.50;79.40;;;;;;5032169;28;20524;-76
2022/08/09 10:21:24;;;;;;;3.53;2.17;;;22.50;79.50;;;;;;5031727;28;20029;-76
2022/08/09 10:23:50;;;;;;;3.53;2.25;;;22.50;79.50;;;;;;5031770;28;20017;-75
2022/08/09 10:26:16;;;;;;;2.78;1.90;;;22.50;79.60;;;;;;5032986;28;20120;-76
2022/08/09 10:28:42;;;;;;;3.38;2.22;;;22.50;79.50;;;;;;5033201;28;20164;-76
2022/08/09 10:31:10;;;;;;;3.17;2.03;;;22.50;79.40;;;;;;5031777;28;20033;-75
2022/08/09 10:33:36;;;;;;;3.33;1.95;;;22.50;79.50;;;;;;5033233;28;20033;-76
2022/08/09 10:36:03;;;;;;;3.83;2.13;;;22.50;79.40;;;;;;5031674;28;20521;-76
2022/08/09 10:38:29;;;;;;;2.90;1.85;;;22.50;79.40;;;;;;5032929;28;20022;-75
2022/08/09 10:40:54;;;;;;;2.70;1.70;;;22.50;79.50;;;;;;5032558;28;20032;-76
2022/08/09 10:43:20;;;;;;;2.88;1.80;;;22.50;79.50;;;;;;5031712;28;20056;-77
2022/08/09 10:45:47;;;;;;;2.80;1.80;;;22.50;79.40;;;;;;5031730;28;20112;-76
2022/08/09 10:48:28;;;;;;;3.42;2.00;;;22.60;79.30;;;;;;5031660;28;20612;-76
2022/08/09 10:51:10;;;;;;;3.70;1.88;;;22.60;79.20;;;;;;5031221;28;20031;-75
2022/08/09 10:54:06;;;;;;;2.90;1.83;;;22.60;79.00;;;;;;5031989;28;20414;-76
2022/08/09 10:56:35;;;;;;;4.10;2.05;;;22.60;79.10;;;;;;5032668;28;20406;-76
2022/08/09 10:59:20;;;;;;;2.72;1.73;;;22.60;79.10;;;;;;5031465;28;20521;-75
2022/08/09 11:01:47;;;;;;;3.35;1.80;;;22.60;79.20;;;;;;5030853;28;20445;-75
2022/08/09 11:04:17;;;;;;;3.63;1.90;;;22.50;79.20;;;;;;5031202;28;20028;-75
2022/08/09 11:06:43;;;;;;;3.00;1.70;;;22.50;79.30;;;;;;5031409;28;20383;-76
2022/08/09 11:09:10;;;;;;;2.33;1.75;;;22.50;79.40;;;;;;5031360;28;20095;-75
2022/08/09 11:11:54;;;;;;;2.60;1.77;;;22.50;79.50;;;;;;5031085;28;20410;-76
2022/08/09 11:14:34;;;;;;;2.67;1.73;;;22.50;79.50;;;;;;5032193;28;20528;-75
2022/08/09 11:17:00;;;;;;;3.33;1.87;;;22.50;79.60;;;;;;5032271;28;20045;-76
2022/08/09 11:19:54;;;;;;;2.80;1.90;;;22.50;79.60;;;;;;5032169;28;20410;-75
2022/08/09 11:22:21;;;;;;;3.53;1.98;;;22.50;79.60;;;;;;5031049;28;20028;-75
2022/08/09 11:24:56;;;;;;;2.78;1.67;;;22.40;79.60;;;;;;5032332;28;20398;-75
2022/08/09 11:27:32;;;;;;;3.30;2.00;;;22.50;79.60;;;;;;5031912;28;20021;-76
2022/08/09 11:29:59;;;;;;;3.75;1.70;;;22.50;79.60;;;;;;5030445;28;20409;-76
2022/08/09 11:32:49;;;;;;;2.92;1.70;;;22.50;79.60;;;;;;5030770;28;20029;-75
2022/08/09 11:35:18;;;;;;;2.67;1.70;;;22.50;79.50;;;;;;5032031;28;20022;-76
2022/08/09 11:37:47;;;;;;;2.25;1.63;;;22.50;79.30;;;;;;5030040;28;20057;-75
2022/08/09 11:40:23;;;;;;;3.28;1.95;;;22.50;79.20;;;;;;5030289;28;20022;-75
2022/08/09 11:42:54;;;;;;;2.65;1.83;;;22.50;79.20;;;;;;5030527;28;20032;-76
2022/08/09 11:45:22;;;;;;;3.10;1.90;;;22.50;79.30;;;;;;5031753;28;20028;-76
2022/08/09 11:47:53;;;;;;;2.83;1.73;;;22.50;79.30;;;;;;5030532;28;20033;-76
2022/08/09 11:50:20;;;;;;;2.72;1.70;;;22.50;79.30;;;;;;5030422;28;20033;-77
2022/08/09 11:52:58;;;;;;;2.80;1.80;;;22.50;79.40;;;;;;5030552;28;20080;-75
2022/08/09 11:55:33;;;;;;;2.83;1.67;;;22.50;79.50;;;;;;5030580;28;20072;-76
2022/08/09 11:58:14;;;;;;;2.90;1.80;;;22.50;79.60;;;;;;5030456;28;20474;-76
2022/08/09 12:00:50;;;;;;;;;;;22.40;79.60;;;;;;5030449;28;20060;-76
2022/08/09 12:03:17;;;;;;;4.13;1.90;;;22.40;79.70;;;;;;5031732;28;19996;-75
2022/08/09 12:05:43;;;;;;;2.75;1.77;;;22.40;79.80;;;;;;5030273;28;20064;-75
2022/08/09 12:08:10;;;;;;;3.33;1.80;;;22.40;79.90;;;;;;5030421;28;20021;-75
2022/08/09 12:10:42;;;;;;;2.25;1.77;;;22.40;79.90;;;;;;5031155;28;20048;-76
2022/08/09 12:13:08;;;;;;;2.30;1.52;;;22.30;79.90;;;;;;5030158;28;20052;-75
2022/08/09 12:15:33;;;;;;;2.47;1.80;;;22.40;80.00;;;;;;5030295;28;20030;-75
2022/08/09 12:17:59;;;;;;;2.17;1.42;;;22.40;80.00;;;;;;5031410;28;20120;-75
2022/08/09 12:20:26;;;;;;;3.03;1.80;;;22.40;80.00;;;;;;5029910;28;20099;-75
2022/08/09 12:22:55;;;;;;;4.72;1.85;;;22.40;79.80;;;;;;5030164;28;20403;-76
2022/08/09 12:25:20;;;;;;;2.45;1.60;;;22.40;79.70;;;;;;5030100;28;20112;-75
2022/08/09 12:27:46;;;;;;;2.85;1.77;;;22.40;79.60;;;;;;5030206;28;20134;-77
2022/08/09 12:30:12;;;;;;;2.38;1.60;;;22.40;79.60;;;;;;5031053;28;20033;-76
2022/08/09 12:32:38;;;;;;;2.50;1.83;;;22.30;79.50;;;;;;5031546;28;20163;-76
2022/08/09 12:35:05;;;;;;;2.67;1.70;;;22.40;79.60;;;;;;5031439;28;20049;-76
2022/08/09 12:37:35;;;;;;;1.95;1.63;;;22.40;79.70;;;;;;5031326;28;20038;-76
2022/08/09 12:40:09;;;;;;;2.50;1.60;;;22.40;79.80;;;;;;5030982;28;20029;-76
2022/08/09 12:42:35;;;;;;;3.33;1.75;;;22.30;79.80;;;;;;5030016;28;20045;-76
2022/08/09 12:45:02;;;;;;;2.58;1.85;;;22.30;80.00;;;;;;5031026;28;20053;-76
2022/08/09 12:47:30;;;;;;;3.03;1.60;;;22.30;80.10;;;;;;5030677;28;20441;-76
2022/08/09 12:52:41;;;;;;;2.15;1.58;;;22.30;80.20;;;;;;5035392;28;20465;-77
2022/08/09 12:55:09;;;;;;;2.53;1.70;;;22.20;80.20;;;;;;5035013;28;20024;-76
2022/08/09 12:57:43;;;;;;;2.67;1.60;;;22.20;80.30;;;;;;5033574;28;20410;-76